createdAt,value
2019-03-06T00:01:45.927Z,6.07
2019-03-06T00:04:16.533Z,6.30
2019-03-06T00:06:47.075Z,7.77
2019-03-06T00:09:17.578Z,6.53
2019-03-06T00:11:47.992Z,6.37
2019-03-06T00:14:18.294Z,7.40
2019-03-06T00:16:49.016Z,8.93
2019-03-06T00:19:19.361Z,6.80
2019-03-06T00:21:49.956Z,7.73
2019-03-06T00:24:20.178Z,6.83
2019-03-06T00:26:50.433Z,8.13
2019-03-06T00:29:21.135Z,6.83
2019-03-06T00:31:51.449Z,10.20
2019-03-06T00:34:21.791Z,11.33
2019-03-06T00:36:52.026Z,7.97
2019-03-06T00:39:22.952Z,9.23
2019-03-06T00:41:54.721Z,6.70
2019-03-06T00:44:25.134Z,7.10
2019-03-06T00:46:55.675Z,8.90
2019-03-06T00:49:26.181Z,7.07
2019-03-06T00:51:56.628Z,5.83
2019-03-06T00:54:27.548Z,7.77
2019-03-06T00:56:57.881Z,10.30
2019-03-06T00:59:28.127Z,9.60
2019-03-06T01:01:58.682Z,8.77
2019-03-06T01:04:29.035Z,9.87
2019-03-06T01:06:59.446Z,8.57
2019-03-06T01:09:31.977Z,9.63
2019-03-06T01:12:02.358Z,4.07
2019-03-06T01:14:32.626Z,5.27
2019-03-06T01:17:02.812Z,7.03
2019-03-06T01:19:33.346Z,6.17
2019-03-06T01:22:03.563Z,7.30
2019-03-06T01:24:34.027Z,9.13
2019-03-06T01:27:04.394Z,4.97
2019-03-06T01:29:35.237Z,5.60
2019-03-06T01:32:05.588Z,6.90
2019-03-06T01:35:07.001Z,6.37
2019-03-06T01:37:56.440Z,8.20
2019-03-06T01:40:52.836Z,6.77
2019-03-06T01:43:37.425Z,7.73
2019-03-06T01:46:08.267Z,6.90
2019-03-06T01:48:39.001Z,7.97
2019-03-06T01:51:09.261Z,4.10
2019-03-06T01:53:40.195Z,5.97
2019-03-06T01:56:10.892Z,7.33
2019-03-06T01:58:41.175Z,6.60
2019-03-06T02:01:11.756Z,6.17
2019-03-06T02:03:41.862Z,4.00
2019-03-06T02:06:12.156Z,6.37
2019-03-06T02:08:42.726Z,8.30
2019-03-06T02:11:13.080Z,6.37
2019-03-06T02:13:43.416Z,5.63
2019-03-06T02:16:13.667Z,6.60
2019-03-06T02:18:44.164Z,6.97
2019-03-06T02:21:15.532Z,7.47
2019-03-06T02:23:46.150Z,7.07
2019-03-06T02:26:16.753Z,6.77
2019-03-06T02:28:47.526Z,7.03
2019-03-06T02:31:18.149Z,6.33
2019-03-06T02:33:48.441Z,5.83
2019-03-06T02:36:18.563Z,4.10
2019-03-06T02:38:49.499Z,6.50
2019-03-06T02:41:20.118Z,5.47
2019-03-06T02:43:52.964Z,7.00
2019-03-06T02:46:23.631Z,8.07
2019-03-06T02:48:53.958Z,7.47
2019-03-06T02:51:24.151Z,7.20
2019-03-06T02:53:54.459Z,5.50
2019-03-06T02:56:25.095Z,6.37
2019-03-06T02:59:29.313Z,7.10
2019-03-06T03:02:05.066Z,7.40
2019-03-06T03:04:40.129Z,6.40
2019-03-06T03:07:13.447Z,6.73
2019-03-06T03:09:50.722Z,7.57
2019-03-06T03:12:21.308Z,9.00
2019-03-06T03:14:51.604Z,7.97
2019-03-06T03:17:21.950Z,7.73
2019-03-06T03:19:52.656Z,9.53
2019-03-06T03:22:22.906Z,8.90
2019-03-06T03:24:53.288Z,10.03
2019-03-06T03:27:23.623Z,8.10
2019-03-06T03:29:54.167Z,8.80
2019-03-06T03:32:25.106Z,8.43
2019-03-06T03:34:55.785Z,11.10
2019-03-06T03:37:25.890Z,10.03
2019-03-06T03:39:56.449Z,9.20
2019-03-06T03:42:27.109Z,8.33
2019-03-06T03:44:58.420Z,14.17
2019-03-06T03:47:28.672Z,9.73
2019-03-06T03:49:59.928Z,9.03
2019-03-06T03:52:30.496Z,13.60
2019-03-06T03:55:00.970Z,11.13
2019-03-06T03:57:31.570Z,13.00
2019-03-06T04:00:02.433Z,12.67
2019-03-06T04:02:32.791Z,8.90
2019-03-06T04:05:03.355Z,11.93
2019-03-06T04:07:33.669Z,13.10
2019-03-06T04:10:04.007Z,14.20
2019-03-06T04:12:34.497Z,12.60
2019-03-06T04:15:05.321Z,13.50
2019-03-06T04:17:35.885Z,14.20
2019-03-06T04:20:07.518Z,13.30
2019-03-06T04:22:37.869Z,10.30
2019-03-06T04:25:08.379Z,11.53
2019-03-06T04:27:38.671Z,12.23
2019-03-06T04:30:11.950Z,12.53
2019-03-06T04:32:43.762Z,12.97
2019-03-06T04:35:14.698Z,12.40
2019-03-06T04:37:44.984Z,12.30
2019-03-06T04:40:15.274Z,12.60
2019-03-06T04:42:45.554Z,11.77
2019-03-06T04:45:15.882Z,12.97
2019-03-06T04:47:46.450Z,12.47
2019-03-06T04:50:16.759Z,13.23
2019-03-06T04:52:47.028Z,13.97
2019-03-06T04:55:17.337Z,13.13
2019-03-06T04:57:48.223Z,11.23
2019-03-06T05:00:18.881Z,12.80
2019-03-06T05:02:49.294Z,14.00
2019-03-06T05:05:19.538Z,15.07
2019-03-06T05:07:50.106Z,12.93
2019-03-06T05:10:20.393Z,15.57
2019-03-06T05:12:50.985Z,11.57
2019-03-06T05:15:21.784Z,12.40
2019-03-06T05:18:03.458Z,12.40
2019-03-06T05:20:33.830Z,14.70
2019-03-06T05:23:04.574Z,13.37
2019-03-06T05:25:36.120Z,14.27
2019-03-06T05:28:06.584Z,15.53
2019-03-06T05:30:36.872Z,14.23
2019-03-06T05:33:07.994Z,15.33
2019-03-06T05:36:40.604Z,14.50
2019-03-06T05:39:12.546Z,14.30
2019-03-06T05:41:42.812Z,14.87
2019-03-06T05:44:13.471Z,15.00
2019-03-06T05:46:43.812Z,15.67
2019-03-06T05:49:14.056Z,14.77
2019-03-06T05:51:45.382Z,12.33
2019-03-06T05:54:15.706Z,14.43
2019-03-06T05:56:48.354Z,13.17
2019-03-06T05:59:19.107Z,13.67
2019-03-06T06:01:49.705Z,12.00
2019-03-06T06:04:19.936Z,16.00
2019-03-06T06:06:51.287Z,12.90
2019-03-06T06:09:21.539Z,14.40
2019-03-06T06:11:51.702Z,14.37
2019-03-06T06:14:22.091Z,13.23
2019-03-06T06:16:52.680Z,12.60
2019-03-06T06:19:22.923Z,13.80
2019-03-06T06:22:17.910Z,11.47
2019-03-06T06:24:48.313Z,16.10
2019-03-06T06:27:18.606Z,13.10
2019-03-06T06:29:49.376Z,15.80
2019-03-06T06:32:19.717Z,13.60
2019-03-06T06:34:49.913Z,12.17
2019-03-06T06:37:20.110Z,14.53
2019-03-06T06:39:50.399Z,13.07
2019-03-06T06:42:20.803Z,12.60
2019-03-06T06:44:51.051Z,12.07
2019-03-06T06:47:21.151Z,14.30
2019-03-06T06:49:51.477Z,12.07
2019-03-06T06:52:46.771Z,13.17
2019-03-06T06:56:11.590Z,13.83
2019-03-06T06:59:10.124Z,12.27
2019-03-06T07:02:36.029Z,12.17
2019-03-06T07:05:31.851Z,10.70
2019-03-06T07:08:36.322Z,12.37
2019-03-06T07:11:24.445Z,12.53
2019-03-06T07:14:26.127Z,14.07
2019-03-06T07:17:14.662Z,12.47
2019-03-06T07:20:16.167Z,13.23
2019-03-06T07:23:05.430Z,11.63
2019-03-06T07:25:50.802Z,13.13
2019-03-06T07:28:40.914Z,14.87
2019-03-06T07:31:27.722Z,13.37
2019-03-06T07:34:04.391Z,13.57
2019-03-06T07:36:52.540Z,12.07
2019-03-06T07:39:32.304Z,11.57
2019-03-06T07:42:20.512Z,14.37
2019-03-06T07:45:54.260Z,13.37
2019-03-06T07:48:38.291Z,12.57
2019-03-06T07:51:27.591Z,14.53
2019-03-06T07:54:20.606Z,13.57
2019-03-06T07:57:15.618Z,13.43
2019-03-06T07:59:46.133Z,12.40
2019-03-06T08:02:23.130Z,12.10
2019-03-06T08:04:54.551Z,13.37
2019-03-06T08:07:25.173Z,13.63
2019-03-06T08:09:55.545Z,14.40
2019-03-06T08:12:50.705Z,11.97
2019-03-06T08:15:38.777Z,14.33
2019-03-06T08:18:26.741Z,12.87
2019-03-06T08:21:16.921Z,14.43
2019-03-06T08:24:21.289Z,11.63
2019-03-06T08:26:51.763Z,11.30
2019-03-06T08:29:22.355Z,11.63
2019-03-06T08:32:14.860Z,12.70
2019-03-06T08:34:45.109Z,13.67
2019-03-06T08:37:17.515Z,12.17
2019-03-06T08:39:48.259Z,12.03
2019-03-06T08:42:18.518Z,12.00
2019-03-06T08:44:48.854Z,13.17
2019-03-06T08:47:37.708Z,11.13
2019-03-06T08:50:33.554Z,15.10
2019-03-06T08:53:29.126Z,14.37
2019-03-06T08:56:12.602Z,14.03
2019-03-06T08:59:07.740Z,12.63
2019-03-06T09:02:00.082Z,13.43
2019-03-06T09:04:42.201Z,14.40
2019-03-06T09:07:30.066Z,14.73
2019-03-06T09:10:08.449Z,14.07
2019-03-06T09:12:53.509Z,12.10
2019-03-06T09:15:52.588Z,13.60
2019-03-06T09:18:45.008Z,13.97
2019-03-06T09:21:29.595Z,10.87
2019-03-06T09:24:13.305Z,11.07
2019-03-06T09:26:59.644Z,11.30
2019-03-06T09:29:55.349Z,11.23
2019-03-06T09:32:36.746Z,10.07
2019-03-06T09:35:35.670Z,9.20
2019-03-06T09:38:30.992Z,11.73
2019-03-06T09:41:23.659Z,9.17
2019-03-06T09:44:04.921Z,10.83
2019-03-06T09:46:45.602Z,11.30
2019-03-06T09:49:28.819Z,12.67
2019-03-06T09:52:24.125Z,14.97
2019-03-06T09:55:01.476Z,11.90
2019-03-06T09:57:57.558Z,9.53
2019-03-06T10:00:33.974Z,10.40
2019-03-06T10:03:22.197Z,11.57
2019-03-06T10:06:00.685Z,10.73
2019-03-06T10:08:53.011Z,12.50
2019-03-06T10:11:40.876Z,10.63
2019-03-06T10:14:18.998Z,11.47
2019-03-06T10:17:12.339Z,11.57
2019-03-06T10:19:55.298Z,11.07
2019-03-06T10:22:25.521Z,10.03
2019-03-06T10:24:56.112Z,11.30
2019-03-06T10:27:26.643Z,9.00
2019-03-06T10:29:56.991Z,9.33
2019-03-06T10:32:27.364Z,9.53
2019-03-06T10:34:57.697Z,8.17
2019-03-06T10:37:28.169Z,11.37
2019-03-06T10:39:58.417Z,9.50
2019-03-06T10:42:28.763Z,8.13
2019-03-06T10:44:58.989Z,7.43
2019-03-06T10:47:30.096Z,8.67
2019-03-06T10:50:00.697Z,7.83
2019-03-06T10:52:31.009Z,7.23
2019-03-06T10:55:01.522Z,7.63
2019-03-06T10:57:31.895Z,8.90
2019-03-06T11:00:02.283Z,7.97
2019-03-06T11:02:32.596Z,7.50
2019-03-06T11:05:09.608Z,7.80
2019-03-06T11:07:39.968Z,8.27
2019-03-06T11:10:11.509Z,7.73
2019-03-06T11:12:41.950Z,6.90
2019-03-06T11:15:12.772Z,7.17
2019-03-06T11:17:43.599Z,8.57
2019-03-06T11:20:18.249Z,3.43
2019-03-06T11:22:49.168Z,5.10
2019-03-06T11:25:20.438Z,7.50
2019-03-06T11:27:51.073Z,4.73
2019-03-06T11:30:37.219Z,5.47
2019-03-06T11:33:10.183Z,4.70
2019-03-06T11:35:41.504Z,7.03
2019-03-06T11:38:13.015Z,10.40
2019-03-06T11:40:43.412Z,3.90
2019-03-06T11:43:14.454Z,5.13
2019-03-06T11:45:45.653Z,5.93
2019-03-06T11:48:16.077Z,4.90
2019-03-06T11:50:46.665Z,4.57
2019-03-06T11:53:16.986Z,5.13
2019-03-06T11:55:48.172Z,6.13
2019-03-06T11:58:21.320Z,4.77
2019-03-06T12:00:51.679Z,4.33
2019-03-06T12:03:23.033Z,6.20
2019-03-06T12:05:53.438Z,5.93
2019-03-06T12:08:24.119Z,5.23
2019-03-06T12:10:55.082Z,4.97
2019-03-06T12:13:25.563Z,4.87
2019-03-06T12:15:55.910Z,4.27
2019-03-06T12:18:26.818Z,3.73
2019-03-06T12:20:58.154Z,5.43
2019-03-06T12:23:28.526Z,4.90
2019-03-06T12:25:58.815Z,5.13
2019-03-06T12:28:28.986Z,6.83
2019-03-06T12:30:59.765Z,3.80
2019-03-06T12:33:30.205Z,2.90
2019-03-06T12:36:00.518Z,6.30
2019-03-06T12:38:30.798Z,6.70
2019-03-06T12:41:01.062Z,7.80
2019-03-06T12:43:32.191Z,5.63
2019-03-06T12:46:25.781Z,4.63
2019-03-06T12:49:06.108Z,5.87
2019-03-06T12:51:37.924Z,6.03
2019-03-06T12:54:09.032Z,8.00
2019-03-06T12:56:40.085Z,6.67
2019-03-06T12:59:10.381Z,4.77
2019-03-06T13:01:40.675Z,3.93
2019-03-06T13:04:10.965Z,7.60
2019-03-06T13:06:41.341Z,6.70
2019-03-06T13:09:20.586Z,4.70
2019-03-06T13:11:51.654Z,5.47
2019-03-06T13:14:21.947Z,4.40
2019-03-06T13:16:52.712Z,6.07
2019-03-06T13:19:23.011Z,4.60
2019-03-06T13:21:53.295Z,4.70
2019-03-06T13:24:23.739Z,5.27
2019-03-06T13:26:54.018Z,5.27
2019-03-06T13:29:25.810Z,5.50
2019-03-06T13:31:56.274Z,4.93
2019-03-06T13:34:33.673Z,5.50
2019-03-06T13:37:04.039Z,3.67
2019-03-06T13:39:34.621Z,3.93
2019-03-06T13:42:04.910Z,7.63
2019-03-06T13:44:35.566Z,2.63
2019-03-06T13:47:05.911Z,5.70
2019-03-06T13:49:36.585Z,4.67
2019-03-06T13:52:06.905Z,5.53
2019-03-06T13:54:37.543Z,3.23
2019-03-06T13:57:08.374Z,4.80
2019-03-06T13:59:38.645Z,4.03
2019-03-06T14:02:09.989Z,4.37
2019-03-06T14:04:40.538Z,6.73
2019-03-06T14:07:10.992Z,3.93
2019-03-06T14:09:41.420Z,4.80
2019-03-06T14:12:12.943Z,3.63
2019-03-06T14:14:43.558Z,3.07
2019-03-06T14:17:13.898Z,5.77
2019-03-06T14:19:44.592Z,5.43
2019-03-06T14:22:14.894Z,4.67
2019-03-06T14:24:45.195Z,5.07
2019-03-06T14:27:15.818Z,4.77
2019-03-06T14:29:46.341Z,6.13
2019-03-06T14:32:16.675Z,5.03
2019-03-06T14:34:46.976Z,5.07
2019-03-06T14:37:17.259Z,8.80
2019-03-06T14:39:47.951Z,5.67
2019-03-06T14:42:18.411Z,4.40
2019-03-06T14:44:48.639Z,3.20
2019-03-06T14:47:20.624Z,3.60
2019-03-06T14:49:50.941Z,3.93
2019-03-06T14:52:21.326Z,5.60
2019-03-06T14:54:51.582Z,7.40
2019-03-06T14:57:22.049Z,4.17
2019-03-06T14:59:52.730Z,3.57
2019-03-06T15:02:22.884Z,6.00
2019-03-06T15:04:53.128Z,4.53
2019-03-06T15:07:23.909Z,3.73
2019-03-06T15:09:54.567Z,3.70
2019-03-06T15:12:24.835Z,5.50
2019-03-06T15:14:55.138Z,4.20
2019-03-06T15:17:26.268Z,4.07
2019-03-06T15:19:56.577Z,3.70
2019-03-06T15:22:38.192Z,4.40
2019-03-06T15:25:01.454Z,2.97
2019-03-06T15:27:33.154Z,3.77
2019-03-06T15:30:03.536Z,6.23
2019-03-06T15:32:33.844Z,3.53
2019-03-06T15:35:04.338Z,5.07
2019-03-06T15:37:50.592Z,3.90
2019-03-06T15:40:24.746Z,4.73
2019-03-06T15:42:58.145Z,4.30
2019-03-06T15:45:32.962Z,5.70
2019-03-06T15:48:07.567Z,3.40
2019-03-06T15:50:38.051Z,6.20
2019-03-06T15:53:08.342Z,3.57
2019-03-06T15:55:40.003Z,3.60
2019-03-06T15:58:10.392Z,6.97
2019-03-06T16:00:46.164Z,4.20
2019-03-06T16:03:12.806Z,4.87
2019-03-06T16:05:44.312Z,4.27
2019-03-06T16:08:15.422Z,4.13
2019-03-06T16:10:46.086Z,3.80
2019-03-06T16:13:17.128Z,4.93
2019-03-06T16:15:47.391Z,2.70
2019-03-06T16:18:17.614Z,5.00
2019-03-06T16:20:47.901Z,4.77
2019-03-06T16:23:18.395Z,3.37
2019-03-06T16:25:57.923Z,5.33
2019-03-06T16:28:28.613Z,4.57
2019-03-06T16:30:58.910Z,5.67
2019-03-06T16:33:29.258Z,5.03
2019-03-06T16:36:00.189Z,4.10
2019-03-06T16:38:30.583Z,4.13
2019-03-06T16:41:01.016Z,5.67
2019-03-06T16:43:31.315Z,4.20
2019-03-06T16:46:01.671Z,4.33
2019-03-06T16:48:32.423Z,4.13
2019-03-06T16:51:02.712Z,4.53
2019-03-06T16:53:33.076Z,4.00
2019-03-06T16:56:03.392Z,3.97
2019-03-06T16:58:33.714Z,4.63
2019-03-06T17:01:09.502Z,7.03
2019-03-06T17:03:39.934Z,5.70
2019-03-06T17:06:10.916Z,4.57
2019-03-06T17:08:41.690Z,5.07
2019-03-06T17:11:13.378Z,5.57
2019-03-06T17:13:43.989Z,4.70
2019-03-06T17:16:15.488Z,6.00
2019-03-06T17:18:46.004Z,4.63
2019-03-06T17:21:16.343Z,5.87
2019-03-06T17:23:46.866Z,4.97
2019-03-06T17:26:17.511Z,4.47
2019-03-06T17:28:47.856Z,4.60
2019-03-06T17:31:18.066Z,5.80
2019-03-06T17:33:48.355Z,5.43
2019-03-06T17:36:18.985Z,4.50
2019-03-06T17:38:49.413Z,7.67
2019-03-06T17:41:20.020Z,2.50
2019-03-06T17:43:50.544Z,3.93
2019-03-06T17:46:20.994Z,3.63
2019-03-06T17:48:51.581Z,5.33
2019-03-06T17:51:21.997Z,3.70
2019-03-06T17:53:52.107Z,5.40
2019-03-06T17:56:22.473Z,6.77
2019-03-06T17:58:52.721Z,3.33
2019-03-06T18:01:23.690Z,4.80
2019-03-06T18:04:16.401Z,7.23
2019-03-06T18:06:46.715Z,7.63
2019-03-06T18:09:16.961Z,4.63
2019-03-06T18:11:47.541Z,5.07
2019-03-06T18:14:18.149Z,4.97
2019-03-06T18:16:48.727Z,2.87
2019-03-06T18:19:19.151Z,6.47
2019-03-06T18:21:49.800Z,3.77
2019-03-06T18:24:20.569Z,4.70
2019-03-06T18:26:52.022Z,10.33
2019-03-06T18:29:22.871Z,5.93
2019-03-06T18:31:53.264Z,5.40
2019-03-06T18:34:23.429Z,3.77
2019-03-06T18:36:53.661Z,4.17
2019-03-06T18:39:24.104Z,4.00
2019-03-06T18:41:54.719Z,7.53
2019-03-06T18:44:31.675Z,6.30
2019-03-06T18:47:02.054Z,4.07
2019-03-06T18:49:32.987Z,5.30
2019-03-06T18:52:03.632Z,4.43
2019-03-06T18:54:34.100Z,6.03
2019-03-06T18:57:04.377Z,4.37
2019-03-06T18:59:34.657Z,5.03
2019-03-06T19:02:05.165Z,4.33
2019-03-06T19:04:35.527Z,5.37
2019-03-06T19:07:05.764Z,5.63
2019-03-06T19:09:40.230Z,5.10
2019-03-06T19:12:10.772Z,4.20
2019-03-06T19:14:42.476Z,4.50
2019-03-06T19:17:12.868Z,4.10
2019-03-06T19:19:43.745Z,5.90
2019-03-06T19:22:14.278Z,5.57
2019-03-06T19:24:44.724Z,4.97
2019-03-06T19:27:14.916Z,5.77
2019-03-06T19:29:45.067Z,5.73
2019-03-06T19:32:15.396Z,5.87
2019-03-06T19:34:47.819Z,5.10
2019-03-06T19:37:17.987Z,8.63
2019-03-06T19:39:48.270Z,5.00
2019-03-06T19:42:18.777Z,7.73
2019-03-06T19:44:49.639Z,7.10
2019-03-06T19:47:23.131Z,4.00
2019-03-06T19:49:55.479Z,7.30
2019-03-06T19:52:25.765Z,5.10
2019-03-06T19:54:56.098Z,4.77
2019-03-06T19:57:26.739Z,6.63
2019-03-06T19:59:57.354Z,5.47
2019-03-06T20:02:27.671Z,5.37
2019-03-06T20:04:57.991Z,7.83
2019-03-06T20:07:28.290Z,6.10
2019-03-06T20:09:58.591Z,5.37
2019-03-06T20:12:28.925Z,5.47
2019-03-06T20:14:59.385Z,5.50
2019-03-06T20:17:29.646Z,6.00
2019-03-06T20:19:59.827Z,4.30
2019-03-06T20:22:30.017Z,5.67
2019-03-06T20:25:00.559Z,5.10
2019-03-06T20:27:31.179Z,7.13
2019-03-06T20:30:01.488Z,5.17
2019-03-06T20:32:31.853Z,5.57
2019-03-06T20:35:02.049Z,4.93
2019-03-06T20:37:32.329Z,4.47
2019-03-06T20:40:02.624Z,4.30
2019-03-06T20:42:33.634Z,3.73
2019-03-06T20:45:06.909Z,5.60
2019-03-06T20:47:37.330Z,4.73
2019-03-06T20:50:13.449Z,5.27
2019-03-06T20:52:44.118Z,6.10
2019-03-06T20:55:15.383Z,5.03
2019-03-06T20:57:48.021Z,4.80
2019-03-06T21:00:21.425Z,5.27
2019-03-06T21:02:51.852Z,5.53
2019-03-06T21:05:22.208Z,4.37
2019-03-06T21:07:54.883Z,6.80
2019-03-06T21:10:25.201Z,5.43
2019-03-06T21:12:58.955Z,5.33
2019-03-06T21:15:29.280Z,5.97
2019-03-06T21:18:00.143Z,5.70
2019-03-06T21:20:30.437Z,5.77
2019-03-06T21:23:02.736Z,5.00
2019-03-06T21:25:33.302Z,3.57
2019-03-06T21:28:03.605Z,5.60
2019-03-06T21:30:37.867Z,5.97
2019-03-06T21:33:08.488Z,4.50
2019-03-06T21:35:38.789Z,6.73
2019-03-06T21:38:09.140Z,4.83
2019-03-06T21:40:39.483Z,5.80
2019-03-06T21:43:10.108Z,4.27
2019-03-06T21:45:40.824Z,6.83
2019-03-06T21:48:11.245Z,5.50
2019-03-06T21:50:41.576Z,6.03
2019-03-06T21:53:13.374Z,6.80
2019-03-06T21:55:43.704Z,6.27
2019-03-06T21:58:14.087Z,6.80
2019-03-06T22:00:44.300Z,6.23
2019-03-06T22:03:14.578Z,5.67
2019-03-06T22:05:45.129Z,6.40
2019-03-06T22:08:15.435Z,6.00
2019-03-06T22:10:45.812Z,8.50
2019-03-06T22:13:22.672Z,6.67
2019-03-06T22:15:52.940Z,6.53
2019-03-06T22:18:23.487Z,5.93
2019-03-06T22:20:53.813Z,6.40
2019-03-06T22:23:24.071Z,6.03
2019-03-06T22:25:54.311Z,4.40
2019-03-06T22:28:24.784Z,7.47
2019-03-06T22:30:55.086Z,7.10
2019-03-06T22:33:25.464Z,6.93
2019-03-06T22:35:56.075Z,6.57
2019-03-06T22:38:28.320Z,7.10
2019-03-06T22:40:58.830Z,4.13
2019-03-06T22:43:29.172Z,6.90
2019-03-06T22:45:59.623Z,7.10
2019-03-06T22:48:30.549Z,5.33
2019-03-06T22:51:00.640Z,7.67
2019-03-06T22:53:30.896Z,5.13
2019-03-06T22:56:01.544Z,5.77
2019-03-06T22:58:31.827Z,5.07
2019-03-06T23:01:27.081Z,6.17
2019-03-06T23:03:57.825Z,5.20
2019-03-06T23:06:38.571Z,6.87
2019-03-06T23:09:12.486Z,4.97
2019-03-06T23:11:49.071Z,5.30
2019-03-06T23:14:19.452Z,6.77
2019-03-06T23:16:49.891Z,8.70
2019-03-06T23:19:20.264Z,10.20
2019-03-06T23:21:50.559Z,5.70
2019-03-06T23:24:20.844Z,7.27
2019-03-06T23:26:57.832Z,6.93
2019-03-06T23:29:28.020Z,7.13
2019-03-06T23:31:58.323Z,7.40
2019-03-06T23:34:28.828Z,5.50
2019-03-06T23:36:59.322Z,7.00
2019-03-06T23:39:29.896Z,9.13
2019-03-06T23:42:07.959Z,7.93
2019-03-06T23:44:38.571Z,10.07
2019-03-06T23:47:08.921Z,7.90
2019-03-06T23:49:39.224Z,7.83
2019-03-06T23:52:17.761Z,6.83
2019-03-06T23:54:49.053Z,8.70
2019-03-06T23:57:19.238Z,7.73
2019-03-06T23:59:50.708Z,7.47
